West Leechburg, Pennsylvania
Current Conditions -  °F | °C
As of 1:35 AM on Saturday 29 Nov 2014 (Local Time) from KBTP Reporting Station
Overcast Overcast  
Wind Chill: 20°   Ceiling: 6500
Heat Index: 27°   Visibility: 10mi
Dew Point: 18°   Wind: 6mph
Humidity: 69%   Direction: 140°SE
Pressure: 30.17"   Gusts: NA
Location:  40.669°N, 79.6041°W
Report Text: KBTP 290635Z AUTO 14005KT 10SM OVC065 M03/M08 A3017 RMK AO1
Loading
Personal Weather Stations






























Interactive Weather Map New forecast layout! Learn more

10-Day Weather Forecast

Advertisements
Track Severe Weather on mobile